Time;durP1;ratioP1;P1;durP2;ratioP2;P2;SDS_P1;SDS_P2;PMS_P1;PMS_P2;Temp;Humidity;BMP_temperature;BMP_pressure;BME280_temperature;BME280_humidity;BME280_pressure;Samples;Min_cycle;Max_cycle;Signal;HPM_P1;HPM_P2
2022/07/12 00:00:14;;;;;;;4.63;2.83;;;;;;;11.07;93.75;99126.20;2174325;82;20994;-84
2022/07/12 00:03:15;;;;;;;5.13;3.30;;;;;;;11.09;93.67;99123.17;2174419;81;20929;-83
2022/07/12 00:06:15;;;;;;;8.93;4.03;;;;;;;11.11;94.08;99129.30;2174350;82;20917;-83
2022/07/12 00:09:15;;;;;;;3.40;3.10;;;;;;;11.13;94.48;99127.16;2174276;82;20989;-84
2022/07/12 00:12:16;;;;;;;3.57;3.27;;;;;;;11.14;94.45;99122.81;2174291;82;20882;-84
2022/07/12 00:15:16;;;;;;;6.07;3.27;;;;;;;11.14;94.65;99125.00;2173727;82;20940;-83
2022/07/12 00:18:17;;;;;;;5.77;3.20;;;;;;;11.19;95.18;99126.37;2174252;82;20917;-83
2022/07/12 00:21:17;;;;;;;7.50;3.67;;;;;;;11.24;94.80;99123.39;2174114;82;20969;-83
2022/07/12 00:24:17;;;;;;;5.27;3.00;;;;;;;11.29;95.11;99129.59;2173923;82;20937;-82
2022/07/12 00:27:18;;;;;;;3.50;3.17;;;;;;;11.33;95.53;99123.97;2173701;82;20976;-84
2022/07/12 00:30:18;;;;;;;4.83;3.00;;;;;;;11.34;95.13;99125.30;2173952;82;20953;-83
2022/07/12 00:33:19;;;;;;;9.43;3.23;;;;;;;11.38;95.63;99127.09;2173805;82;21332;-83
2022/07/12 00:36:19;;;;;;;4.27;3.50;;;;;;;11.43;95.46;99125.84;2173752;82;20906;-81
2022/07/12 00:39:19;;;;;;;7.70;3.37;;;;;;;11.46;95.49;99129.38;2173949;82;20926;-83
2022/07/12 00:42:20;;;;;;;7.57;3.43;;;;;;;11.47;95.44;99129.83;2173859;82;20958;-84
2022/07/12 00:45:20;;;;;;;8.43;3.47;;;;;;;11.50;95.51;99131.61;2173454;82;20960;-82
2022/07/12 00:48:21;;;;;;;5.03;3.10;;;;;;;11.52;95.34;99126.39;2173823;82;20940;-86
2022/07/12 00:51:21;;;;;;;4.67;3.00;;;;;;;11.54;95.33;99122.94;2173860;82;20913;-79
2022/07/12 00:54:21;;;;;;;13.03;3.37;;;;;;;11.59;95.32;99128.23;2174501;82;21308;-83
2022/07/12 00:57:22;;;;;;;3.97;2.97;;;;;;;11.62;95.21;99132.19;2173907;82;20917;-80
2022/07/12 01:00:25;;;;;;;6.33;3.20;;;;;;;11.66;95.35;99130.05;2174267;82;20961;-82
2022/07/12 01:03:26;;;;;;;5.40;3.17;;;;;;;11.67;95.04;99123.53;2180292;81;20995;-82
2022/07/12 01:06:26;;;;;;;7.12;3.50;;;;;;;11.72;95.05;99119.67;2190486;81;21351;-80
2022/07/12 01:09:26;;;;;;;6.78;3.00;;;;;;;11.74;95.08;99130.59;2190385;81;21269;-82
2022/07/12 01:12:27;;;;;;;8.40;3.53;;;;;;;11.77;95.06;99121.51;2190365;81;20936;-82
2022/07/12 01:15:28;;;;;;;4.58;3.70;;;;;;;11.78;95.17;99131.11;2190094;81;21006;-83
2022/07/12 01:18:28;;;;;;;4.83;3.27;;;;;;;11.79;95.65;99130.68;2190360;81;21316;-81
2022/07/12 01:21:28;;;;;;;4.97;3.30;;;;;;;11.79;95.06;99129.38;2190600;81;20904;-82
2022/07/12 01:24:28;;;;;;;8.70;3.30;;;;;;;11.80;95.95;99133.74;2190500;81;20940;-83
2022/07/12 01:27:31;;;;;;;4.63;3.10;;;;;;;11.81;95.50;99132.88;2172590;81;20959;-83
2022/07/12 01:30:31;;;;;;;6.43;2.70;;;;;;;11.86;95.60;99122.47;2190559;81;20924;-82
2022/07/12 01:33:33;;;;;;;4.30;2.80;;;;;;;11.90;95.48;99119.91;2190372;81;21296;-83
2022/07/12 01:36:32;;;;;;;7.62;3.95;;;;;;;11.96;95.74;99123.89;2190239;81;20893;-81
2022/07/12 01:39:32;;;;;;;11.48;4.40;;;;;;;11.98;95.56;99119.56;2190351;81;20969;-81
2022/07/12 01:42:33;;;;;;;18.00;12.53;;;;;;;12.01;95.54;99117.41;2190502;81;20955;-83
2022/07/12 01:45:33;;;;;;;12.53;10.50;;;;;;;12.04;95.49;99125.28;2190545;81;20979;-83
2022/07/12 01:48:34;;;;;;;8.40;5.00;;;;;;;12.06;95.26;99120.52;2190285;81;21008;-83
2022/07/12 01:51:35;;;;;;;9.20;3.20;;;;;;;12.08;95.09;99119.22;2190718;81;20953;-85
2022/07/12 01:54:35;;;;;;;8.83;3.05;;;;;;;12.12;95.14;99117.08;2190956;81;20896;-82
2022/07/12 01:57:36;;;;;;;4.27;2.80;;;;;;;12.44;95.58;99112.17;2190458;81;21264;-82
2022/07/12 02:00:36;;;;;;;5.77;2.93;;;;;;;12.39;94.57;99123.04;2190415;81;20916;-82
2022/07/12 02:03:37;;;;;;;6.30;2.55;;;;;;;12.31;94.46;99119.47;2184504;80;20968;-83
2022/07/12 02:06:38;;;;;;;5.87;2.80;;;;;;;12.27;94.44;99113.33;2173766;82;21273;-84
2022/07/12 02:09:37;;;;;;;3.22;2.60;;;;;;;12.25;94.56;99114.19;2173823;82;20909;-83
2022/07/12 02:12:38;;;;;;;6.78;3.55;;;;;;;12.24;94.76;99122.90;2173774;82;20922;-83
2022/07/12 02:15:39;;;;;;;5.27;3.10;;;;;;;12.23;95.06;99125.95;2173612;82;21019;-83
2022/07/12 02:18:38;;;;;;;7.90;2.60;;;;;;;12.20;95.23;99120.69;2173615;82;20902;-83
2022/07/12 02:21:39;;;;;;;4.27;2.87;;;;;;;12.21;95.57;99122.87;2173399;82;20949;-82
2022/07/12 02:24:39;;;;;;;4.17;2.75;;;;;;;12.22;95.93;99123.31;2173708;82;20941;-83
2022/07/12 02:27:43;;;;;;;5.92;3.08;;;;;;;12.22;95.82;99124.19;2173644;82;21369;-83
2022/07/12 02:30:44;;;;;;;6.67;3.67;;;;;;;12.23;96.21;99115.91;2173663;82;20886;-83
2022/07/12 02:33:44;;;;;;;5.45;3.30;;;;;;;12.26;96.00;99123.79;2173524;82;20921;-83
2022/07/12 02:36:45;;;;;;;6.92;3.65;;;;;;;12.24;96.03;99133.37;2173232;82;20957;-82
2022/07/12 02:39:45;;;;;;;7.78;3.50;;;;;;;12.22;95.81;99121.58;2173412;82;21289;-82
2022/07/12 02:42:45;;;;;;;6.22;3.20;;;;;;;12.21;96.24;99117.20;2173528;82;20885;-84
2022/07/12 02:45:46;;;;;;;9.28;3.75;;;;;;;12.21;96.36;99125.48;2173543;82;20997;-83
2022/07/12 02:48:46;;;;;;;5.75;3.60;;;;;;;12.20;96.10;99121.11;2173547;82;20925;-83
2022/07/12 02:51:47;;;;;;;8.40;3.80;;;;;;;12.19;96.05;99120.66;2173839;82;20929;-82
2022/07/12 02:54:49;;;;;;;7.92;4.08;;;;;;;12.19;96.58;99121.55;2173773;82;21364;-84
2022/07/12 02:57:49;;;;;;;15.98;3.85;;;;;;;12.18;96.19;99117.61;2173269;82;20972;-84
2022/07/12 03:00:50;;;;;;;7.60;4.50;;;;;;;12.19;96.50;99121.98;2173662;82;20921;-82
2022/07/12 03:03:50;;;;;;;7.47;4.10;;;;;;;12.20;96.47;99122.42;2179386;81;20949;-83
2022/07/12 03:06:51;;;;;;;13.73;3.90;;;;;;;12.21;96.37;99121.56;2190450;81;20933;-83
2022/07/12 03:09:51;;;;;;;10.23;4.55;;;;;;;12.22;96.41;99122.00;2190613;81;20924;-83
2022/07/12 03:12:52;;;;;;;10.00;3.90;;;;;;;12.24;96.46;99123.77;2190534;81;20947;-82
2022/07/12 03:15:52;;;;;;;7.50;3.60;;;;;;;12.28;96.45;99124.25;2190423;81;20976;-83
2022/07/12 03:18:52;;;;;;;14.23;4.00;;;;;;;12.30;96.61;99124.27;2190854;81;20963;-83
2022/07/12 03:21:53;;;;;;;5.83;3.30;;;;;;;12.33;96.72;99126.91;2190608;81;20928;-84
2022/07/12 03:24:53;;;;;;;9.30;3.45;;;;;;;12.36;96.40;99125.20;2190106;81;20987;-83
2022/07/12 03:27:54;;;;;;;6.08;3.60;;;;;;;12.41;96.64;99124.80;2190424;81;20972;-84
2022/07/12 03:30:54;;;;;;;5.12;3.40;;;;;;;12.46;96.41;99120.05;2190466;81;20924;-84
2022/07/12 03:33:55;;;;;;;6.90;3.62;;;;;;;12.46;96.38;99123.53;2190469;81;20954;-82
2022/07/12 03:36:55;;;;;;;7.58;4.05;;;;;;;12.49;96.31;99120.95;2190746;81;20952;-82
2022/07/12 03:39:56;;;;;;;5.92;3.95;;;;;;;12.54;96.20;99128.84;2190038;81;20893;-84
2022/07/12 03:42:58;;;;;;;8.68;4.20;;;;;;;12.60;95.86;99119.30;2190267;81;20936;-80
2022/07/12 03:45:56;;;;;;;11.43;4.75;;;;;;;12.64;95.67;99118.45;2190292;81;20964;-83
2022/07/12 03:48:56;;;;;;;8.15;4.70;;;;;;;12.69;95.97;99116.74;2190241;81;20955;-84
2022/07/12 03:51:57;;;;;;;7.30;3.85;;;;;;;12.77;96.00;99111.56;2190444;81;20905;-84
2022/07/12 03:55:01;;;;;;;7.08;3.90;;;;;;;12.83;95.59;99116.84;2190041;81;21606;-84
2022/07/12 03:57:59;;;;;;;10.48;4.05;;;;;;;12.87;95.41;99113.38;2173243;81;20940;-85
2022/07/12 04:01:00;;;;;;;6.67;3.58;;;;;;;12.92;95.33;99114.29;2189755;81;21596;-82
2022/07/12 04:04:01;;;;;;;6.62;3.40;;;;;;;13.00;95.29;99109.09;2189479;80;20965;-84
2022/07/12 04:07:01;;;;;;;5.47;2.67;;;;;;;13.06;94.83;99106.55;2190108;81;20920;-84
2022/07/12 04:10:01;;;;;;;7.90;3.70;;;;;;;13.11;94.83;99114.44;2189888;81;21603;-85
2022/07/12 04:13:01;;;;;;;11.20;3.12;;;;;;;13.13;94.71;99115.33;2189858;81;21172;-83
2022/07/12 04:16:03;;;;;;;10.58;3.52;;;;;;;13.21;94.42;99117.16;2190132;81;20970;-82
2022/07/12 04:19:02;;;;;;;8.45;3.55;;;;;;;13.25;94.30;99112.37;2189922;81;20952;-82
2022/07/12 04:22:03;;;;;;;13.93;3.80;;;;;;;13.24;94.19;99108.43;2189791;81;20980;-83
2022/07/12 04:25:03;;;;;;;8.13;3.02;;;;;;;13.24;94.19;99108.43;2189191;81;20920;-83
2022/07/12 04:28:04;;;;;;;8.60;3.52;;;;;;;13.25;94.31;99108.44;2189230;81;20952;-83
2022/07/12 04:31:04;;;;;;;10.20;3.22;;;;;;;13.28;93.95;99108.89;2189258;81;20908;-84
2022/07/12 04:34:04;;;;;;;5.33;3.50;;;;;;;13.32;93.91;99098.42;2189767;81;20960;-83
2022/07/12 04:37:05;;;;;;;4.03;3.40;;;;;;;13.43;93.67;99105.47;2189173;81;20964;-83
2022/07/12 04:40:05;;;;;;;5.87;3.50;;;;;;;13.53;93.42;99100.70;2189021;81;20921;-82
2022/07/12 04:43:06;;;;;;;8.78;3.08;;;;;;;13.58;93.12;99095.04;2188922;81;20940;-82
2022/07/12 04:46:08;;;;;;;6.15;2.50;;;;;;;13.62;93.01;99095.48;2188292;81;20971;-83
2022/07/12 04:49:08;;;;;;;5.55;2.80;;;;;;;13.64;92.71;99091.12;2171662;81;21002;-83
2022/07/12 04:52:09;;;;;;;4.58;3.05;;;;;;;13.65;93.00;99093.75;2188698;81;21166;-83
2022/07/12 04:55:09;;;;;;;5.95;2.70;;;;;;;13.70;92.78;99101.64;2188374;81;20917;-81
2022/07/12 04:58:10;;;;;;;4.90;2.70;;;;;;;13.75;92.25;99097.72;2188038;81;20924;-83
2022/07/12 05:01:10;;;;;;;5.05;2.85;;;;;;;13.78;92.21;99090.73;2188059;81;20940;-82
2022/07/12 05:04:10;;;;;;;10.25;2.60;;;;;;;13.85;92.17;99086.37;2183507;80;20960;-84
2022/07/12 05:07:11;;;;;;;6.58;2.70;;;;;;;13.92;91.69;99081.18;2171758;82;21001;-83
2022/07/12 05:10:11;;;;;;;6.72;2.52;;;;;;;14.07;91.30;99077.70;2172471;82;20928;-83
2022/07/12 05:13:12;;;;;;;5.42;2.37;;;;;;;14.29;90.29;99079.92;2172098;82;20956;-80
2022/07/12 05:16:12;;;;;;;7.85;2.58;;;;;;;14.58;89.75;99076.02;2172208;82;21023;-83
2022/07/12 05:19:13;;;;;;;4.75;2.70;;;;;;;14.71;89.44;99072.94;2171809;82;20992;-81
2022/07/12 05:22:13;;;;;;;4.85;2.95;;;;;;;14.75;89.00;99076.91;2171249;82;21324;-83
2022/07/12 05:25:13;;;;;;;6.03;2.12;;;;;;;14.75;88.62;99076.91;2171229;82;21427;-83
2022/07/12 05:28:14;;;;;;;8.05;2.75;;;;;;;14.78;88.62;99078.66;2171235;82;20972;-83
2022/07/12 05:31:14;;;;;;;7.08;2.47;;;;;;;14.81;88.53;99078.65;2171447;82;20944;-83
2022/07/12 05:34:14;;;;;;;4.70;2.37;;;;;;;14.83;88.14;99084.78;2171625;82;21304;-82
2022/07/12 05:37:15;;;;;;;4.37;2.33;;;;;;;14.94;88.03;99081.69;2171385;82;20905;-80
2022/07/12 05:40:15;;;;;;;4.15;2.30;;;;;;;15.21;87.43;99081.63;2170693;82;21012;-80
2022/07/12 05:43:16;;;;;;;2.60;2.10;;;;;;;15.73;86.90;99074.02;2171558;82;20941;-80
2022/07/12 05:46:16;;;;;;;3.37;1.80;;;;;;;16.39;84.42;99066.12;2171271;82;20941;-81
2022/07/12 05:49:16;;;;;;;7.00;2.20;;;;;;;16.95;84.40;99066.11;2171624;82;21616;-80
2022/07/12 05:55:35;;;;;;;3.37;1.72;;;;;;;17.58;80.19;99071.57;2172861;81;21395;-79
2022/07/12 05:58:36;;;;;;;1.82;1.70;;;;;;;17.62;76.88;99066.67;2172467;82;20909;-81
2022/07/12 06:01:36;;;;;;;4.05;1.98;;;;;;;17.32;76.19;99074.94;2172128;82;20928;-81
2022/07/12 06:04:37;;;;;;;3.17;1.90;;;;;;;17.18;78.15;99070.69;2171788;80;21387;-82
2022/07/12 06:07:37;;;;;;;4.40;2.30;;;;;;;17.30;76.28;99071.00;2171308;82;20913;-81
2022/07/12 06:10:37;;;;;;;6.67;1.72;;;;;;;17.38;76.18;99069.17;2171461;82;20925;-79
2022/07/12 06:13:38;;;;;;;2.30;1.70;;;;;;;17.64;76.58;99067.53;2171420;82;20917;-80
2022/07/12 06:16:38;;;;;;;2.98;1.60;;;;;;;17.71;74.06;99071.87;2171059;82;20957;-82
2022/07/12 06:19:39;;;;;;;3.70;1.90;;;;;;;17.55;75.44;99070.29;2171473;82;21340;-83
2022/07/12 06:22:39;;;;;;;3.42;1.80;;;;;;;17.79;76.29;99070.45;2171714;82;20925;-82
2022/07/12 06:25:40;;;;;;;5.87;3.12;;;;;;;18.05;76.21;99064.34;2171164;82;21541;-82
2022/07/12 06:28:41;;;;;;;7.50;2.25;;;;;;;18.48;73.85;99068.99;2171207;82;20909;-81
2022/07/12 06:31:40;;;;;;;4.62;1.62;;;;;;;18.57;73.40;99075.90;2170821;82;20933;-81
2022/07/12 06:34:41;;;;;;;5.22;1.80;;;;;;;18.44;73.23;99077.42;2170221;82;20960;-83
2022/07/12 06:37:41;;;;;;;3.98;1.77;;;;;;;18.48;72.58;99074.73;2169555;82;21341;-81
2022/07/12 06:40:42;;;;;;;3.02;1.70;;;;;;;18.56;72.51;99067.09;2170262;82;20920;-79
2022/07/12 06:43:42;;;;;;;5.08;1.70;;;;;;;18.43;70.52;99078.77;2171358;82;21348;-81
2022/07/12 06:46:42;;;;;;;2.22;1.42;;;;;;;18.11;72.44;99080.55;2170433;82;21000;-81
2022/07/12 06:49:43;;;;;;;3.95;1.57;;;;;;;18.43;72.33;99074.36;2170715;82;20933;-82
2022/07/12 06:52:43;;;;;;;4.47;2.03;;;;;;;19.04;69.57;99077.73;2170928;82;20976;-81
2022/07/12 06:55:44;;;;;;;3.45;1.40;;;;;;;19.01;67.53;99077.34;2170585;82;20980;-82
2022/07/12 06:58:44;;;;;;;3.20;1.40;;;;;;;18.93;66.85;99078.39;2170605;82;20975;-82
2022/07/12 07:01:45;;;;;;;1.95;1.22;;;;;;;18.83;67.16;99075.48;2171037;82;20960;-82
2022/07/12 07:04:45;;;;;;;4.53;1.40;;;;;;;18.75;65.65;99088.84;2171754;81;20936;-81
2022/07/12 07:07:45;;;;;;;2.75;1.60;;;;;;;18.70;66.00;99082.76;2170989;82;20920;-81
2022/07/12 07:10:46;;;;;;;3.45;1.50;;;;;;;18.92;65.04;99079.28;2171599;82;20952;-83
2022/07/12 07:13:46;;;;;;;1.42;1.30;;;;;;;18.56;64.90;99082.08;2172081;82;20985;-81
2022/07/12 07:16:47;;;;;;;3.02;1.10;;;;;;;18.54;65.11;99082.56;2172562;82;20964;-80
2022/07/12 07:19:47;;;;;;;3.58;1.55;;;;;;;18.67;65.09;99088.09;2172660;82;21339;-81
2022/07/12 07:22:47;;;;;;;5.85;1.80;;;;;;;18.70;65.27;99078.80;2171306;82;20971;-84
2022/07/12 07:25:48;;;;;;;2.92;1.62;;;;;;;19.02;65.28;99083.06;2172096;82;21043;-82
2022/07/12 07:32:07;;;;;;;2.55;1.30;;;;;;;19.22;63.98;99080.52;2172688;81;20929;-81
2022/07/12 07:35:07;;;;;;;5.67;1.50;;;;;;;19.50;63.51;99072.91;2173020;82;20929;-82
2022/07/12 07:38:09;;;;;;;1.50;1.40;;;;;;;19.57;62.42;99075.88;2173034;82;21316;-83
2022/07/12 07:41:08;;;;;;;2.85;1.60;;;;;;;19.70;59.82;99076.91;2173288;82;20898;-82
2022/07/12 07:44:18;;;;;;;2.67;1.47;;;;;;;19.61;61.12;99075.78;2172707;82;20965;-84
2022/07/12 07:47:18;;;;;;;11.33;2.10;;;;;;;19.66;59.81;99077.01;2172302;82;20984;-83
2022/07/12 07:50:18;;;;;;;6.00;1.22;;;;;;;19.49;60.66;99070.70;2172174;82;20937;-84
2022/07/12 07:53:19;;;;;;;8.55;1.40;;;;;;;19.43;60.53;99072.16;2172651;82;20905;-84
2022/07/12 07:56:19;;;;;;;5.78;2.20;;;;;;;19.38;60.81;99066.08;2172733;82;20929;-84
2022/07/12 07:59:20;;;;;;;5.53;1.92;;;;;;;19.27;60.38;99073.36;2171848;82;20921;-83
2022/07/12 08:02:20;;;;;;;3.55;1.40;;;;;;;19.14;61.87;99067.89;2172677;82;21385;-83
2022/07/12 08:05:20;;;;;;;2.17;1.20;;;;;;;19.29;61.60;99063.62;2179380;80;20940;-84
2022/07/12 08:08:21;;;;;;;5.00;1.32;;;;;;;19.69;59.82;99053.11;2188569;81;20921;-84
2022/07/12 08:11:21;;;;;;;5.47;1.17;;;;;;;19.80;60.83;99063.47;2188839;81;21340;-84
2022/07/12 08:14:22;;;;;;;4.22;1.70;;;;;;;19.68;59.51;99065.48;2188423;81;20921;-84
2022/07/12 08:17:22;;;;;;;3.22;1.15;;;;;;;19.77;58.74;99062.21;2188307;81;20972;-83
2022/07/12 08:20:22;;;;;;;6.08;1.00;;;;;;;20.10;59.50;99064.59;2188275;81;20963;-84
2022/07/12 08:23:24;;;;;;;3.80;1.20;;;;;;;20.38;59.28;99052.88;2188620;81;20913;-82
2022/07/12 08:26:23;;;;;;;7.58;1.57;;;;;;;20.31;58.44;99056.14;2188219;81;20908;-82
2022/07/12 08:29:24;;;;;;;7.17;1.90;;;;;;;19.54;59.00;99066.22;2187793;81;20947;-85
2022/07/12 08:32:24;;;;;;;4.03;1.77;;;;;;;18.91;61.27;99074.89;2187965;81;20952;-83
2022/07/12 08:35:25;;;;;;;6.87;1.60;;;;;;;18.69;62.46;99069.11;2187772;81;21262;-82
2022/07/12 08:38:25;;;;;;;5.37;2.02;;;;;;;20.10;60.40;99056.19;2187048;81;20936;-82
2022/07/12 08:41:25;;;;;;;7.83;1.60;;;;;;;20.10;60.40;99056.19;2187771;81;20916;-81
2022/07/12 08:44:26;;;;;;;7.10;2.02;;;;;;;20.10;58.88;99073.41;2187833;81;21653;-83
2022/07/12 08:47:26;;;;;;;5.40;1.98;;;;;;;20.17;58.52;99065.73;2187935;81;21035;-81
2022/07/12 08:50:27;;;;;;;4.72;1.77;;;;;;;20.44;57.73;99076.17;2188399;81;20956;-80
2022/07/12 08:53:27;;;;;;;4.40;1.62;;;;;;;20.13;58.64;99073.80;2188470;81;21300;-79
2022/07/12 08:56:28;;;;;;;5.50;1.80;;;;;;;20.07;58.23;99068.64;2189069;81;20964;-80
2022/07/12 08:59:28;;;;;;;4.90;2.30;;;;;;;20.58;58.24;99059.47;2187476;81;20964;-80
2022/07/12 09:02:28;;;;;;;6.40;2.37;;;;;;;21.17;56.82;99058.38;2187836;81;20959;-81
2022/07/12 09:05:29;;;;;;;6.12;1.82;;;;;;;21.44;55.04;99060.75;2187709;80;20964;-80
2022/07/12 09:08:30;;;;;;;4.12;2.20;;;;;;;21.28;55.92;99062.09;2188255;81;20957;-80
2022/07/12 09:11:30;;;;;;;3.40;1.77;;;;;;;21.61;54.98;99054.95;2187370;81;20936;-82
2022/07/12 09:14:31;;;;;;;4.05;1.70;;;;;;;21.93;55.07;99046.91;2188025;81;21314;-81
2022/07/12 09:17:31;;;;;;;3.10;1.70;;;;;;;22.08;54.28;99050.04;2187504;81;20959;-82
2022/07/12 09:20:31;;;;;;;9.55;2.05;;;;;;;21.57;53.93;99055.49;2187979;81;20921;-80
2022/07/12 09:23:31;;;;;;;4.45;2.02;;;;;;;21.15;54.52;99056.68;2188029;81;21364;-83
2022/07/12 09:26:32;;;;;;;6.08;2.35;;;;;;;21.22;54.26;99050.28;2188347;81;20983;-82
2022/07/12 09:29:33;;;;;;;2.95;1.70;;;;;;;21.73;53.63;99038.67;2187895;81;20908;-81
2022/07/12 09:39:00;;;;;;;3.15;1.82;;;;;;;20.81;52.57;99048.75;2187949;81;21523;-82
2022/07/12 09:41:58;;;;;;;4.95;1.92;;;;;;;20.88;54.21;99043.70;2188586;81;20995;-82
2022/07/12 09:44:58;;;;;;;5.78;3.27;;;;;;;20.76;54.09;99046.64;2188033;81;21828;-83
2022/07/12 09:47:59;;;;;;;4.40;1.85;;;;;;;20.47;54.77;99042.08;2187642;81;20960;-80
2022/07/12 09:50:59;;;;;;;1.60;1.50;;;;;;;20.31;53.34;99050.38;2187917;81;20940;-82
2022/07/12 09:54:01;;;;;;;3.90;1.65;;;;;;;20.34;54.06;99050.30;2187116;81;21347;-82
2022/07/12 09:57:01;;;;;;;4.30;1.57;;;;;;;20.97;51.70;99046.98;2187577;81;20920;-82
2022/07/12 10:00:02;;;;;;;5.30;1.57;;;;;;;21.01;50.88;99049.55;2188364;81;20979;-82
2022/07/12 10:03:02;;;;;;;2.60;1.70;;;;;;;21.06;51.25;99041.01;2188854;81;20908;-81
2022/07/12 10:06:03;;;;;;;6.35;1.60;;;;;;;21.63;50.00;99050.00;2188764;81;20953;-83
2022/07/12 10:09:03;;;;;;;4.65;1.77;;;;;;;21.61;51.31;99042.53;2189526;81;20960;-83
2022/07/12 10:12:03;;;;;;;5.72;1.70;;;;;;;21.75;52.74;99037.30;2188884;81;20988;-80
2022/07/12 10:15:04;;;;;;;7.78;1.42;;;;;;;21.70;52.67;99037.90;2188699;81;20955;-82
2022/07/12 10:18:05;;;;;;;5.85;1.70;;;;;;;21.25;52.37;99062.18;2189215;81;20988;-80
2022/07/12 10:21:05;;;;;;;3.33;1.27;;;;;;;21.53;52.94;99043.22;2189632;81;21305;-82
2022/07/12 10:24:05;;;;;;;2.50;1.52;;;;;;;21.87;52.95;99027.63;2187475;81;20928;-81
2022/07/12 10:27:05;;;;;;;3.30;3.05;;;;;;;22.49;49.99;99018.11;2187568;81;20965;-80
2022/07/12 10:30:06;;;;;;;12.80;4.67;;;;;;;22.77;47.37;99036.24;2187670;81;21597;-79
2022/07/12 10:33:06;;;;;;;4.92;1.95;;;;;;;22.59;46.58;99031.55;2187569;81;20932;-78
2022/07/12 10:36:07;;;;;;;3.10;2.02;;;;;;;22.67;46.01;99025.97;2187477;81;20916;-80
2022/07/12 10:39:07;;;;;;;3.42;2.35;;;;;;;22.76;46.38;99026.52;2187123;81;21396;-81
2022/07/12 10:42:07;;;;;;;3.85;1.80;;;;;;;22.84;46.49;99026.28;2188332;81;20964;-81
2022/07/12 10:45:08;;;;;;;8.30;1.75;;;;;;;22.84;45.32;99011.19;2187548;81;20960;-83
2022/07/12 10:48:08;;;;;;;23.55;3.15;;;;;;;22.75;47.44;99010.14;2187550;81;20979;-79
2022/07/12 10:51:09;;;;;;;10.48;7.72;;;;;;;22.34;46.38;99028.80;2186780;81;20920;-82
2022/07/12 10:54:09;;;;;;;3.02;2.02;;;;;;;21.68;45.96;99021.13;2187104;81;20952;-82
2022/07/12 10:57:09;;;;;;;1.92;1.62;;;;;;;21.30;46.79;99014.67;2187379;81;21580;-85
2022/07/12 11:00:10;;;;;;;3.27;2.30;;;;;;;21.24;46.95;99012.66;2188301;81;20969;-82
2022/07/12 11:03:10;;;;;;;3.72;1.75;;;;;;;21.37;47.33;99012.72;2187746;81;20904;-84
2022/07/12 11:06:11;;;;;;;12.47;2.60;;;;;;;21.66;45.93;99010.98;2187858;81;21349;-83
2022/07/12 11:09:11;;;;;;;3.20;1.32;;;;;;;21.79;45.85;98995.11;2189466;81;20897;-82
2022/07/12 11:12:12;;;;;;;9.73;1.85;;;;;;;21.55;46.05;99007.31;2189378;81;21023;-84
2022/07/12 11:15:13;;;;;;;6.35;1.55;;;;;;;21.27;46.86;99017.42;2188944;81;21673;-85
2022/07/12 11:18:12;;;;;;;3.60;1.42;;;;;;;20.88;47.10;99012.73;2188546;81;21380;-78
2022/07/12 11:21:13;;;;;;;7.55;1.75;;;;;;;20.68;48.29;99005.73;2189218;81;20885;-80
2022/07/12 11:24:13;;;;;;;11.95;2.27;;;;;;;20.73;48.63;99009.59;2189103;81;20909;-83
2022/07/12 11:27:14;;;;;;;2.08;1.30;;;;;;;21.01;49.27;99005.30;2188925;81;20904;-84
2022/07/12 11:30:16;;;;;;;4.40;1.50;;;;;;;21.24;48.27;99006.02;2187699;81;21332;-82
2022/07/12 11:33:14;;;;;;;4.85;1.42;;;;;;;21.35;48.92;99005.25;2187764;81;20889;-84
2022/07/12 11:36:15;;;;;;;4.30;1.40;;;;;;;21.59;48.72;99005.85;2188023;81;20980;-81
2022/07/12 11:39:15;;;;;;;3.37;1.20;;;;;;;22.23;48.79;99005.22;2189329;81;21640;-84
2022/07/12 11:42:16;;;;;;;1.98;0.82;;;;;;;22.68;45.25;98992.66;2188731;81;20940;-81
2022/07/12 11:45:16;;;;;;;1.82;1.00;;;;;;;22.80;45.06;99004.23;2187582;81;20963;-80
2022/07/12 11:48:16;;;;;;;1.50;1.12;;;;;;;22.79;43.17;99001.59;2187543;81;20999;-81
2022/07/12 11:51:17;;;;;;;1.27;1.17;;;;;;;22.50;44.11;98993.25;2188442;81;20935;-83
2022/07/12 11:54:17;;;;;;;2.00;1.10;;;;;;;22.17;44.36;99004.09;2188348;81;20893;-80
2022/07/12 11:57:18;;;;;;;2.08;0.90;;;;;;;22.04;45.17;99000.09;2188410;81;20952;-81
2022/07/12 12:00:18;;;;;;;3.33;1.10;;;;;;;22.39;44.36;98995.41;2188652;81;20955;-83
2022/07/12 12:03:19;;;;;;;4.00;1.20;;;;;;;22.78;44.91;98989.20;2188055;81;20916;-81
2022/07/12 12:06:19;;;;;;;2.85;0.98;;;;;;;23.05;43.92;98990.05;2188066;81;20961;-83
2022/07/12 12:09:19;;;;;;;9.88;1.17;;;;;;;23.37;42.77;98988.85;2189373;81;20920;-83
2022/07/12 12:15:00;;;;;;;2.75;1.00;;;;;;;23.31;41.13;98977.10;2258598;79;23028;-83
2022/07/12 12:18:02;;;;;;;5.08;1.10;;;;;;;23.17;39.70;98997.59;2224875;80;20991;-82
2022/07/12 12:21:01;;;;;;;7.85;1.30;;;;;;;23.10;40.36;98998.73;2224649;80;21343;-82
2022/07/12 12:24:02;;;;;;;2.33;1.05;;;;;;;23.18;40.04;98983.34;2223316;80;20964;-84
2022/07/12 12:27:02;;;;;;;5.50;1.15;;;;;;;23.38;40.22;98978.61;2223636;80;20928;-82
2022/07/12 12:30:02;;;;;;;2.22;1.17;;;;;;;23.34;39.78;98971.20;2224203;80;20960;-83
2022/07/12 12:33:03;;;;;;;3.58;1.00;;;;;;;23.39;40.02;98955.91;2224141;80;20932;-82
2022/07/12 12:36:03;;;;;;;4.05;1.32;;;;;;;23.54;38.91;98961.14;2224201;80;21330;-82
2022/07/12 12:39:05;;;;;;;2.20;1.00;;;;;;;23.53;38.17;98978.52;2224899;80;20909;-83
2022/07/12 12:42:04;;;;;;;2.58;0.90;;;;;;;23.61;36.91;98972.46;2225460;80;20955;-86
2022/07/12 12:45:04;;;;;;;6.08;1.00;;;;;;;23.68;37.16;98993.95;2226545;80;21363;-85
2022/07/12 12:48:08;;;;;;;5.97;1.00;;;;;;;23.57;35.90;98975.70;2226629;80;20900;-84
2022/07/12 12:51:08;;;;;;;2.60;0.90;;;;;;;23.50;35.92;98968.84;2227209;80;20923;-84
2022/07/12 12:54:09;;;;;;;1.75;0.62;;;;;;;23.50;35.75;98979.04;2227066;80;20972;-82
2022/07/12 12:57:09;;;;;;;1.70;0.93;;;;;;;23.54;36.84;98969.13;2227056;80;21503;-81
2022/07/12 13:00:09;;;;;;;1.42;0.70;;;;;;;23.66;36.85;98976.69;2226962;80;20935;-80
2022/07/12 13:03:10;;;;;;;3.70;0.80;;;;;;;23.60;36.05;98969.39;2226970;80;20923;-82
2022/07/12 13:06:10;;;;;;;2.17;0.80;;;;;;;23.55;36.77;98968.70;2227316;80;21434;-82
2022/07/12 13:09:11;;;;;;;2.87;0.80;;;;;;;23.60;36.15;98968.93;2227002;80;20972;-82
2022/07/12 13:12:11;;;;;;;0.65;0.60;;;;;;;23.52;36.23;98964.33;2227719;80;21719;-81
2022/07/12 13:15:12;;;;;;;3.00;0.98;;;;;;;23.63;36.64;98983.92;2210858;80;20925;-82
2022/07/12 13:18:12;;;;;;;1.52;0.70;;;;;;;23.74;37.09;98960.39;2209986;81;20963;-81
2022/07/12 13:21:12;;;;;;;2.67;0.70;;;;;;;23.78;34.59;98958.01;2209596;81;21001;-82
2022/07/12 13:24:13;;;;;;;3.40;0.70;;;;;;;23.67;35.73;98966.42;2209619;81;21015;-79
2022/07/12 13:27:13;;;;;;;3.60;0.60;;;;;;;23.58;35.74;98965.92;2207900;81;21032;-80
2022/07/12 13:30:14;;;;;;;1.92;0.95;;;;;;;23.41;36.57;98966.53;2208080;81;21443;-81
2022/07/12 13:33:14;;;;;;;3.12;0.80;;;;;;;23.35;37.21;98970.27;2209277;81;20992;-80
2022/07/12 13:36:14;;;;;;;2.15;0.70;;;;;;;23.34;37.06;98956.55;2209869;81;20976;-85
2022/07/12 13:42:34;;;;;;;1.45;0.65;;;;;;;23.27;37.85;98963.03;2209306;81;21014;-80
2022/07/12 13:45:34;;;;;;;1.00;0.53;;;;;;;23.37;36.95;98967.55;2209469;81;20963;-81
2022/07/12 13:48:34;;;;;;;3.05;0.70;;;;;;;23.33;37.61;98955.27;2209714;81;20969;-81
2022/07/12 13:51:35;;;;;;;5.45;3.83;;;;;;;23.37;37.96;98955.56;2209446;81;20936;-82
2022/07/12 13:54:35;;;;;;;3.15;2.85;;;;;;;23.24;37.95;98952.95;2209064;81;20955;-80
2022/07/12 13:57:36;;;;;;;1.25;1.15;;;;;;;23.06;38.34;98969.16;2209721;81;21292;-81
2022/07/12 14:00:36;;;;;;;3.05;0.78;;;;;;;22.88;38.71;98962.25;2209462;81;20992;-80
2022/07/12 14:03:36;;;;;;;1.60;1.17;;;;;;;22.80;38.70;98964.31;2209394;81;20960;-80
2022/07/12 14:06:37;;;;;;;8.18;1.35;;;;;;;22.83;40.23;98956.68;2209592;81;20944;-81
2022/07/12 14:09:37;;;;;;;1.10;1.00;;;;;;;22.96;43.01;98959.77;2208989;81;21365;-81
2022/07/12 14:12:38;;;;;;;4.33;1.17;;;;;;;23.06;44.33;98957.17;2209546;81;20999;-81
2022/07/12 14:15:39;;;;;;;1.62;1.17;;;;;;;23.11;44.97;98959.20;2208809;81;21023;-80
2022/07/12 14:18:38;;;;;;;4.47;1.00;;;;;;;23.20;45.53;98962.39;2210458;81;21359;-81
2022/07/12 14:21:39;;;;;;;2.50;1.05;;;;;;;23.22;45.11;98953.02;2209123;81;21000;-81
2022/07/12 14:24:39;;;;;;;4.22;1.07;;;;;;;23.19;44.39;98958.45;2209611;81;21003;-82